Addingham, United Kingdom
Current Conditions -  °F | °C
As of 3:50 AM on Friday 19 Dec 2014 (Local Time) from EGNM Reporting Station
Light Rain Light Rain  
Wind Chill: 31°   Ceiling: Unl
Heat Index: 41°   Visibility: 6mi
Dew Point: 37°   Wind: 22mph
Humidity: 87%   Direction: 270°W
Pressure: 29.62"   Gusts: 36mph
Location:  53.94°N, 1.88°W
Report Text: EGNM 190350Z 27019G31KT 240V310 9999 -RA FEW035 05/03 Q1003
Loading
Personal Weather Stations






























Interactive Weather Map New forecast layout! Learn more

10-Day Weather Forecast

Advertisements
Track Severe Weather on mobile